Time;durP1;ratioP1;P1;durP2;ratioP2;P2;SDS_P1;SDS_P2;PMS_P1;PMS_P2;Temp;Humidity;BMP_temperature;BMP_pressure;BME280_temperature;BME280_humidity;BME280_pressure;Samples;Min_cycle;Max_cycle;Signal;HPM_P1;HPM_P2
2022/03/14 00:01:06;;;;;;;1.75;1.58;;;6.00;99.90;;;;;;5049798;28;20025;-84
2022/03/14 00:03:42;;;;;;;1.80;1.50;;;6.10;99.90;;;;;;5050079;28;20104;-84
2022/03/14 00:06:12;;;;;;;1.80;1.40;;;6.00;99.90;;;;;;5050558;28;20025;-84
2022/03/14 00:08:41;;;;;;;1.40;1.20;;;6.00;99.90;;;;;;5049490;28;20100;-84
2022/03/14 00:11:07;;;;;;;1.77;1.30;;;6.00;99.90;;;;;;5049746;28;20036;-84
2022/03/14 00:13:33;;;;;;;1.67;1.25;;;6.00;99.90;;;;;;5050001;28;20390;-84
2022/03/14 00:15:59;;;;;;;1.50;1.00;;;6.10;99.90;;;;;;5049792;28;20119;-84
2022/03/14 00:18:27;;;;;;;2.67;1.30;;;6.00;99.90;;;;;;5049941;28;20103;-84
2022/03/14 00:20:52;;;;;;;2.58;1.30;;;6.00;99.90;;;;;;5050742;28;20081;-84
2022/03/14 00:23:19;;;;;;;1.33;1.10;;;5.90;99.90;;;;;;5049714;28;20029;-84
2022/03/14 00:25:45;;;;;;;1.10;1.00;;;6.00;99.90;;;;;;5049692;28;20017;-84
2022/03/14 00:28:12;;;;;;;1.35;0.80;;;6.00;99.90;;;;;;5049893;28;20027;-84
2022/03/14 00:30:37;;;;;;;1.10;1.00;;;6.00;99.90;;;;;;5049407;28;20091;-84
2022/03/14 00:33:03;;;;;;;1.17;0.80;;;6.00;99.90;;;;;;5050852;28;20537;-84
2022/03/14 00:35:29;;;;;;;1.88;1.08;;;6.00;99.90;;;;;;5049446;28;20546;-84
2022/03/14 00:37:55;;;;;;;0.90;0.73;;;6.00;99.90;;;;;;5049142;28;20025;-84
2022/03/14 00:40:21;;;;;;;1.52;0.90;;;6.00;99.90;;;;;;5049385;28;20024;-84
2022/03/14 00:42:48;;;;;;;0.70;0.70;;;6.10;99.90;;;;;;5049693;28;20482;-84
2022/03/14 00:45:14;;;;;;;1.30;1.10;;;6.00;99.90;;;;;;5050976;28;20025;-84
2022/03/14 00:47:40;;;;;;;0.90;0.80;;;6.00;99.90;;;;;;5049736;28;20112;-84
2022/03/14 00:50:07;;;;;;;0.90;0.60;;;6.10;99.90;;;;;;5049141;28;20041;-84
2022/03/14 00:52:33;;;;;;;1.67;0.90;;;5.90;99.90;;;;;;5049395;28;20021;-84
2022/03/14 00:54:58;;;;;;;1.30;0.80;;;5.90;99.90;;;;;;5051682;28;20409;-85
2022/03/14 00:57:24;;;;;;;0.98;0.80;;;5.90;99.90;;;;;;5053621;28;20021;-84
2022/03/14 00:59:51;;;;;;;1.40;0.95;;;5.90;99.90;;;;;;5036427;28;20518;-84
2022/03/14 01:02:16;;;;;;;0.77;0.73;;;5.80;99.90;;;;;;5053341;28;20087;-84
2022/03/14 01:04:42;;;;;;;2.13;1.08;;;5.90;99.90;;;;;;5053076;28;20476;-84
2022/03/14 01:07:08;;;;;;;1.15;0.88;;;5.90;99.90;;;;;;5053125;28;20560;-84
2022/03/14 01:09:34;;;;;;;0.85;0.73;;;5.90;99.90;;;;;;5053302;28;20065;-85
2022/03/14 01:12:01;;;;;;;0.93;0.75;;;5.80;99.90;;;;;;5054113;28;20048;-85
2022/03/14 01:14:26;;;;;;;2.83;0.70;;;5.80;99.90;;;;;;5052751;28;20037;-84
2022/03/14 01:16:53;;;;;;;1.20;1.05;;;5.80;99.90;;;;;;5052890;28;20031;-84
2022/03/14 01:19:19;;;;;;;1.02;0.80;;;5.90;99.90;;;;;;5052849;28;20028;-85
2022/03/14 01:21:46;;;;;;;1.70;1.00;;;5.90;99.90;;;;;;5053404;28;20025;-84
2022/03/14 01:24:12;;;;;;;1.27;1.10;;;5.90;99.90;;;;;;5054225;28;20088;-85
2022/03/14 01:26:37;;;;;;;1.45;1.05;;;5.90;99.90;;;;;;5052370;28;20112;-85
2022/03/14 01:29:04;;;;;;;0.98;0.90;;;5.90;99.90;;;;;;5052652;28;20060;-84
2022/03/14 01:31:30;;;;;;;1.15;1.00;;;5.90;99.90;;;;;;5052763;28;20078;-84
2022/03/14 01:33:56;;;;;;;1.27;1.00;;;5.90;99.90;;;;;;5052630;28;20025;-85
2022/03/14 01:36:22;;;;;;;3.53;1.02;;;5.90;99.90;;;;;;5052983;28;20548;-85
2022/03/14 01:38:47;;;;;;;3.30;1.30;;;6.00;99.90;;;;;;5052688;28;20487;-84
2022/03/14 01:41:17;;;;;;;3.15;1.10;;;6.00;99.90;;;;;;5052093;28;20083;-85
2022/03/14 01:43:44;;;;;;;1.45;1.02;;;6.10;99.90;;;;;;5052584;28;20504;-85
2022/03/14 01:46:12;;;;;;;4.40;1.52;;;6.10;99.90;;;;;;5052683;28;20017;-84
2022/03/14 01:48:38;;;;;;;0.90;0.90;;;6.20;99.90;;;;;;5052164;28;20029;-84
2022/03/14 01:51:04;;;;;;;3.58;1.35;;;6.30;99.90;;;;;;5035488;28;20051;-84
2022/03/14 01:53:31;;;;;;;3.10;1.20;;;6.30;99.90;;;;;;5052505;28;20057;-84
2022/03/14 01:55:57;;;;;;;3.08;1.35;;;6.40;99.90;;;;;;5052009;28;20075;-85
2022/03/14 01:58:23;;;;;;;2.38;1.70;;;6.50;99.90;;;;;;5052228;28;20068;-85
2022/03/14 02:00:50;;;;;;;5.65;2.08;;;6.50;99.90;;;;;;5052313;28;20045;-85
2022/03/14 02:03:16;;;;;;;5.20;1.90;;;6.60;99.90;;;;;;5052965;28;20078;-85
2022/03/14 02:05:44;;;;;;;7.40;2.15;;;6.60;99.90;;;;;;5052303;28;20100;-84
2022/03/14 02:08:09;;;;;;;4.05;2.03;;;6.60;99.90;;;;;;5052165;28;20052;-85
2022/03/14 02:10:35;;;;;;;4.88;2.28;;;6.60;99.90;;;;;;5051811;28;20060;-85
2022/03/14 02:13:06;;;;;;;3.22;1.80;;;6.60;99.90;;;;;;5052225;28;20499;-85
2022/03/14 02:15:33;;;;;;;5.03;1.90;;;6.50;99.90;;;;;;5052000;28;20517;-84
2022/03/14 02:17:59;;;;;;;4.00;1.90;;;6.60;99.90;;;;;;5053170;28;20029;-85
2022/03/14 02:20:25;;;;;;;2.55;1.70;;;6.60;99.90;;;;;;5051753;28;20028;-85
2022/03/14 02:22:51;;;;;;;4.30;1.80;;;6.60;99.90;;;;;;5033991;28;20516;-85
2022/03/14 02:25:17;;;;;;;5.50;2.38;;;6.70;99.90;;;;;;5051533;28;20025;-85
2022/03/14 02:27:42;;;;;;;4.13;2.33;;;6.70;99.90;;;;;;5051825;28;20037;-85
2022/03/14 02:30:08;;;;;;;3.53;1.83;;;6.70;99.90;;;;;;5052725;28;20060;-85
2022/03/14 02:32:39;;;;;;;6.63;2.90;;;6.70;99.90;;;;;;5051540;28;20059;-85
2022/03/14 02:35:05;;;;;;;3.95;2.25;;;6.70;99.90;;;;;;5051300;28;20551;-85
2022/03/14 02:37:31;;;;;;;8.85;2.92;;;6.70;99.90;;;;;;5051426;28;20056;-85
2022/03/14 02:39:57;;;;;;;6.15;2.70;;;6.70;99.90;;;;;;5051497;28;20041;-85
2022/03/14 02:42:22;;;;;;;11.35;3.58;;;6.80;99.90;;;;;;5052014;28;20082;-84
2022/03/14 02:44:48;;;;;;;10.05;2.97;;;6.90;99.90;;;;;;5052348;28;20146;-84
2022/03/14 02:47:14;;;;;;;3.53;2.28;;;6.90;99.90;;;;;;5051689;28;20119;-84
2022/03/14 02:49:40;;;;;;;5.40;2.75;;;6.90;99.90;;;;;;5050930;28;20086;-84
2022/03/14 02:52:06;;;;;;;9.70;2.90;;;6.90;99.90;;;;;;5033645;28;20033;-84
2022/03/14 02:54:32;;;;;;;6.55;3.00;;;6.90;99.90;;;;;;5050970;28;20020;-84
2022/03/14 02:56:58;;;;;;;7.75;3.38;;;7.00;99.90;;;;;;5052432;28;20215;-84
2022/03/14 02:59:23;;;;;;;6.68;3.05;;;7.10;99.90;;;;;;5051229;28;20021;-84
2022/03/14 03:01:49;;;;;;;7.45;4.00;;;7.10;99.90;;;;;;5050751;28;20068;-84
2022/03/14 03:04:15;;;;;;;8.65;3.70;;;7.20;99.90;;;;;;5051254;28;20040;-84
2022/03/14 03:06:42;;;;;;;9.13;3.22;;;7.20;99.90;;;;;;5050548;28;20067;-84
2022/03/14 03:09:08;;;;;;;10.30;3.60;;;7.20;99.90;;;;;;5051931;28;20023;-84
2022/03/14 03:11:34;;;;;;;7.65;3.60;;;7.20;99.90;;;;;;5050795;28;20037;-84
2022/03/14 03:14:01;;;;;;;12.02;3.53;;;7.20;99.90;;;;;;5050839;28;20502;-85
2022/03/14 03:16:27;;;;;;;12.20;3.67;;;7.20;99.90;;;;;;5050133;28;20017;-84
2022/03/14 03:18:54;;;;;;;11.05;3.63;;;7.20;99.90;;;;;;5050414;28;20509;-84
2022/03/14 03:21:20;;;;;;;5.82;3.35;;;7.20;99.90;;;;;;5051008;28;20027;-84
2022/03/14 03:23:46;;;;;;;5.90;3.47;;;7.20;99.90;;;;;;5051168;28;20025;-84
2022/03/14 03:26:12;;;;;;;11.80;4.18;;;7.20;99.90;;;;;;5050706;28;20029;-84
2022/03/14 03:28:38;;;;;;;9.20;4.30;;;7.20;99.90;;;;;;5050563;28;20017;-84
2022/03/14 03:31:06;;;;;;;16.73;3.95;;;7.20;99.90;;;;;;5050427;28;20093;-84
2022/03/14 03:33:32;;;;;;;7.78;3.97;;;7.20;99.90;;;;;;5050563;28;20014;-84
2022/03/14 03:35:58;;;;;;;9.23;3.85;;;7.20;99.90;;;;;;5051543;28;20545;-84
2022/03/14 03:38:24;;;;;;;10.48;4.65;;;7.30;99.90;;;;;;5049912;28;20102;-84
2022/03/14 03:40:50;;;;;;;10.90;4.38;;;7.30;99.90;;;;;;5050142;28;20049;-84
2022/03/14 03:43:16;;;;;;;6.38;4.50;;;7.40;99.90;;;;;;5050168;28;20052;-85
2022/03/14 03:45:42;;;;;;;9.55;4.53;;;7.40;99.90;;;;;;5049992;28;20075;-84
2022/03/14 03:48:07;;;;;;;8.30;4.32;;;7.40;99.90;;;;;;5051651;28;20025;-84
2022/03/14 03:50:33;;;;;;;8.95;4.80;;;7.50;99.90;;;;;;5049860;28;20529;-84
2022/03/14 03:52:59;;;;;;;11.30;4.90;;;7.50;99.90;;;;;;5049828;28;20021;-85
2022/03/14 03:55:25;;;;;;;7.07;4.65;;;7.50;99.90;;;;;;5050019;28;20564;-85
2022/03/14 03:57:51;;;;;;;12.30;5.60;;;7.50;99.90;;;;;;5050218;28;20108;-83
2022/03/14 04:00:18;;;;;;;13.32;6.03;;;7.60;99.90;;;;;;5050923;28;20523;-82
2022/03/14 04:02:44;;;;;;;14.95;5.65;;;7.60;99.90;;;;;;5050763;28;20572;-85
2022/03/14 04:05:13;;;;;;;14.35;6.10;;;7.60;99.90;;;;;;5049884;28;20029;-84
2022/03/14 04:07:40;;;;;;;11.02;5.28;;;7.70;99.90;;;;;;5031682;28;20498;-84
2022/03/14 04:10:06;;;;;;;8.95;4.45;;;7.70;99.90;;;;;;5050199;28;20036;-84
2022/03/14 04:12:32;;;;;;;11.57;4.85;;;7.70;99.90;;;;;;5032113;28;20502;-84
2022/03/14 04:14:58;;;;;;;8.05;4.43;;;7.60;99.90;;;;;;5050949;28;20036;-84
2022/03/14 04:17:25;;;;;;;13.35;5.95;;;7.70;99.90;;;;;;5049760;28;20079;-82
2022/03/14 04:19:52;;;;;;;13.20;5.03;;;7.70;99.90;;;;;;5049779;28;20017;-82
2022/03/14 04:22:19;;;;;;;17.77;5.78;;;7.70;99.90;;;;;;5049631;28;20017;-82
2022/03/14 04:24:45;;;;;;;17.55;5.40;;;7.70;99.90;;;;;;5033881;28;20025;-84
2022/03/14 04:27:11;;;;;;;12.38;5.15;;;7.70;99.90;;;;;;5050813;28;20104;-84
2022/03/14 04:29:37;;;;;;;13.98;4.88;;;7.80;99.90;;;;;;5049719;28;20033;-83
2022/03/14 04:32:03;;;;;;;12.45;4.57;;;7.80;99.90;;;;;;5049625;28;20108;-84
2022/03/14 04:34:29;;;;;;;11.60;6.03;;;7.80;99.90;;;;;;5049075;28;20033;-85
2022/03/14 04:36:55;;;;;;;14.00;6.53;;;7.80;99.90;;;;;;5049158;28;20101;-83
2022/03/14 04:39:21;;;;;;;12.30;6.53;;;7.90;99.90;;;;;;5050063;28;20082;-83
2022/03/14 04:41:47;;;;;;;16.30;7.22;;;7.90;99.90;;;;;;5050064;28;20028;-83
2022/03/14 04:44:13;;;;;;;15.57;6.35;;;7.90;99.90;;;;;;5049663;28;20065;-83
2022/03/14 04:46:39;;;;;;;14.25;7.03;;;7.90;99.90;;;;;;5049224;28;20425;-83
2022/03/14 04:49:05;;;;;;;22.02;7.20;;;7.90;99.90;;;;;;5049197;28;20033;-83
2022/03/14 04:51:33;;;;;;;16.25;6.13;;;7.90;99.90;;;;;;5049305;28;20052;-82
2022/03/14 04:53:59;;;;;;;12.43;6.93;;;8.00;99.90;;;;;;5050758;28;20175;-82
2022/03/14 04:56:25;;;;;;;17.35;6.68;;;7.90;99.90;;;;;;5049239;28;20103;-83
2022/03/14 04:58:52;;;;;;;12.95;6.45;;;8.00;99.90;;;;;;5049372;28;20025;-81
2022/03/14 05:01:23;;;;;;;15.75;7.97;;;8.00;99.90;;;;;;5048948;28;20017;-82
2022/03/14 05:03:49;;;;;;;15.55;7.63;;;8.00;99.90;;;;;;5033570;28;20028;-85
2022/03/14 05:06:16;;;;;;;18.42;7.10;;;8.00;99.90;;;;;;5032116;28;20029;-84
2022/03/14 05:08:42;;;;;;;18.08;7.20;;;8.00;99.90;;;;;;5049779;28;20021;-84
2022/03/14 05:11:10;;;;;;;18.33;6.40;;;8.00;99.90;;;;;;5049146;28;20517;-84
2022/03/14 05:13:37;;;;;;;17.45;7.22;;;8.00;99.90;;;;;;5049125;28;20104;-84
2022/03/14 05:16:03;;;;;;;15.57;6.93;;;8.10;99.90;;;;;;5049107;28;20021;-82
2022/03/14 05:18:28;;;;;;;16.95;7.93;;;8.10;99.90;;;;;;5048901;28;20017;-82
2022/03/14 05:20:54;;;;;;;11.85;6.30;;;8.20;99.90;;;;;;5050161;28;20056;-83
2022/03/14 05:23:20;;;;;;;17.60;6.60;;;8.20;99.90;;;;;;5049160;28;20498;-82
2022/03/14 05:25:46;;;;;;;14.27;7.18;;;8.20;99.90;;;;;;5049108;28;20040;-84
2022/03/14 05:28:12;;;;;;;19.88;6.55;;;8.30;99.90;;;;;;5049586;28;20024;-82
2022/03/14 05:30:38;;;;;;;21.58;7.93;;;8.20;99.90;;;;;;5049176;28;20028;-83
2022/03/14 05:33:03;;;;;;;15.02;7.95;;;8.30;99.90;;;;;;5049927;28;20025;-84
2022/03/14 05:35:29;;;;;;;14.55;7.32;;;8.30;99.90;;;;;;5048533;28;20029;-84
2022/03/14 05:37:55;;;;;;;16.77;7.35;;;8.30;99.90;;;;;;5048592;28;20029;-83
2022/03/14 05:40:21;;;;;;;20.10;7.63;;;8.30;99.90;;;;;;5050115;28;20005;-84
2022/03/14 05:42:48;;;;;;;19.35;7.78;;;8.30;99.90;;;;;;5052832;28;20029;-81
2022/03/14 05:45:15;;;;;;;12.63;7.18;;;8.30;99.90;;;;;;5053790;28;20607;-83
2022/03/14 05:47:41;;;;;;;16.08;7.15;;;8.30;99.90;;;;;;5052667;28;20108;-84
2022/03/14 05:50:08;;;;;;;16.13;7.28;;;8.30;99.90;;;;;;5052176;28;20045;-84
2022/03/14 05:52:34;;;;;;;18.02;7.22;;;8.40;99.90;;;;;;5052357;28;20063;-84
2022/03/14 05:55:00;;;;;;;16.83;7.07;;;8.30;99.90;;;;;;5052367;28;20549;-84
2022/03/14 05:57:25;;;;;;;17.35;7.57;;;8.40;99.90;;;;;;5053021;28;20025;-83
2022/03/14 05:59:51;;;;;;;19.10;8.32;;;8.40;99.90;;;;;;5035328;28;20134;-83
2022/03/14 06:02:22;;;;;;;20.40;7.72;;;8.40;99.90;;;;;;5052073;28;20036;-84
2022/03/14 06:04:49;;;;;;;19.27;8.00;;;8.40;99.90;;;;;;5052126;28;20123;-84
2022/03/14 06:07:15;;;;;;;18.42;8.32;;;8.40;99.90;;;;;;5052133;28;20067;-84
2022/03/14 06:09:41;;;;;;;16.90;8.52;;;8.40;99.90;;;;;;5052309;28;20056;-83
2022/03/14 06:12:07;;;;;;;16.02;7.82;;;8.40;99.90;;;;;;5053206;28;20103;-84
2022/03/14 06:14:34;;;;;;;17.92;7.68;;;8.50;99.90;;;;;;5052010;28;20033;-85
2022/03/14 06:16:59;;;;;;;21.33;10.10;;;8.40;99.90;;;;;;5051821;28;20033;-85
2022/03/14 06:19:25;;;;;;;24.85;8.90;;;8.50;99.90;;;;;;5051595;28;20021;-85
2022/03/14 06:21:51;;;;;;;18.30;8.52;;;8.50;99.90;;;;;;5052098;28;20029;-84
2022/03/14 06:24:17;;;;;;;21.98;9.32;;;8.50;99.90;;;;;;5052658;28;20124;-83
2022/03/14 06:26:43;;;;;;;16.02;8.07;;;8.50;99.90;;;;;;5052281;28;20029;-82
2022/03/14 06:29:10;;;;;;;17.02;8.18;;;8.50;99.90;;;;;;5051545;28;20033;-84
2022/03/14 06:31:36;;;;;;;19.30;8.95;;;8.50;99.90;;;;;;5051482;28;20017;-83
2022/03/14 06:34:02;;;;;;;15.43;8.43;;;8.50;99.90;;;;;;5051749;28;20036;-82
2022/03/14 06:36:28;;;;;;;17.92;8.32;;;8.50;99.90;;;;;;5051292;28;20185;-82
2022/03/14 06:38:58;;;;;;;19.20;8.20;;;8.50;99.90;;;;;;5052590;28;20028;-82
2022/03/14 06:41:24;;;;;;;19.08;8.73;;;8.50;99.90;;;;;;5051310;28;20025;-84
2022/03/14 06:43:52;;;;;;;22.88;9.38;;;8.60;99.90;;;;;;5051486;28;20024;-84
2022/03/14 06:46:19;;;;;;;16.63;8.38;;;8.60;99.90;;;;;;5051303;28;20100;-85
2022/03/14 06:48:46;;;;;;;22.25;9.73;;;8.60;99.90;;;;;;5036122;28;20032;-84
2022/03/14 06:51:12;;;;;;;22.60;9.73;;;8.60;99.90;;;;;;5051766;28;20140;-84
2022/03/14 06:53:38;;;;;;;21.23;8.85;;;8.70;99.90;;;;;;5050687;28;20569;-84
2022/03/14 06:56:04;;;;;;;19.88;8.20;;;8.60;99.90;;;;;;5051170;28;20017;-84
2022/03/14 06:58:30;;;;;;;20.15;9.48;;;8.60;99.90;;;;;;5051084;28;20116;-83
2022/03/14 07:00:57;;;;;;;16.13;8.60;;;8.70;99.90;;;;;;5051074;28;20028;-83
2022/03/14 07:03:23;;;;;;;21.33;9.55;;;8.70;99.90;;;;;;5051451;28;20094;-82
2022/03/14 07:05:49;;;;;;;22.00;9.27;;;8.80;99.90;;;;;;5051917;28;20083;-82
2022/03/14 07:08:16;;;;;;;26.10;9.40;;;8.70;99.90;;;;;;5050746;28;20040;-85
2022/03/14 07:10:42;;;;;;;15.40;7.63;;;8.80;99.90;;;;;;5050931;28;20021;-85
2022/03/14 07:13:07;;;;;;;20.65;7.90;;;8.80;99.90;;;;;;5050972;28;20573;-85
2022/03/14 07:15:33;;;;;;;18.65;7.72;;;8.80;99.90;;;;;;5050740;28;20115;-85
2022/03/14 07:17:59;;;;;;;20.02;8.05;;;8.80;99.90;;;;;;5052102;28;20029;-85
2022/03/14 07:20:26;;;;;;;19.67;8.43;;;8.90;99.90;;;;;;5050532;28;20083;-85
2022/03/14 07:23:01;;;;;;;21.30;7.93;;;8.90;99.90;;;;;;5050807;28;20044;-85
2022/03/14 07:25:40;;;;;;;18.08;7.60;;;9.00;99.90;;;;;;5050622;28;20039;-84
2022/03/14 07:28:08;;;;;;;14.70;7.90;;;9.00;99.90;;;;;;5051126;28;20074;-85
2022/03/14 07:30:35;;;;;;;15.82;7.95;;;9.10;99.90;;;;;;5050171;28;20025;-85
2022/03/14 07:33:01;;;;;;;17.45;6.90;;;9.20;99.90;;;;;;5051822;28;20044;-84
2022/03/14 07:35:28;;;;;;;17.63;6.85;;;9.20;99.90;;;;;;5050302;28;20056;-82
2022/03/14 07:37:55;;;;;;;16.20;6.68;;;9.30;99.90;;;;;;5050144;28;20570;-82
2022/03/14 07:40:21;;;;;;;16.52;7.13;;;9.30;99.90;;;;;;5050373;28;20071;-82
2022/03/14 07:42:48;;;;;;;22.15;8.55;;;9.30;99.90;;;;;;5050402;28;20021;-82
2022/03/14 07:45:16;;;;;;;20.58;6.72;;;9.40;99.90;;;;;;5051631;28;20075;-82
2022/03/14 07:47:43;;;;;;;16.58;6.45;;;9.40;99.90;;;;;;5050798;28;20032;-83
2022/03/14 07:50:12;;;;;;;12.52;6.53;;;9.50;99.90;;;;;;5049972;28;20159;-83
2022/03/14 07:52:38;;;;;;;15.63;6.32;;;9.60;99.90;;;;;;5050079;28;20029;-83
2022/03/14 07:55:06;;;;;;;13.45;6.10;;;9.60;99.90;;;;;;5050195;28;20040;-83
2022/03/14 07:57:33;;;;;;;11.95;6.10;;;9.60;99.90;;;;;;5050298;28;20098;-83
2022/03/14 07:59:59;;;;;;;14.13;6.72;;;9.70;99.90;;;;;;5051118;28;20159;-83
2022/03/14 08:02:26;;;;;;;10.35;5.47;;;9.60;99.90;;;;;;5049833;28;20025;-83
2022/03/14 08:04:51;;;;;;;10.57;5.60;;;9.70;99.90;;;;;;5049871;28;20060;-83
2022/03/14 08:07:18;;;;;;;10.52;5.70;;;9.70;99.90;;;;;;5049488;28;20118;-83
2022/03/14 08:09:43;;;;;;;10.85;5.60;;;9.80;99.90;;;;;;5050283;28;20502;-84
2022/03/14 08:12:12;;;;;;;12.85;5.20;;;9.90;99.90;;;;;;5051182;28;20036;-84
2022/03/14 08:14:37;;;;;;;12.77;5.65;;;9.90;99.90;;;;;;5049471;28;20029;-83
2022/03/14 08:17:04;;;;;;;9.63;4.88;;;9.90;99.90;;;;;;5050131;28;20032;-84
2022/03/14 08:19:29;;;;;;;10.27;5.35;;;10.00;99.90;;;;;;5049822;28;20557;-84
2022/03/14 08:21:57;;;;;;;9.60;5.45;;;10.00;99.90;;;;;;5049649;28;20045;-84
2022/03/14 08:24:23;;;;;;;10.32;4.68;;;10.00;99.90;;;;;;5032363;28;20033;-84
2022/03/14 08:26:49;;;;;;;10.35;4.35;;;10.00;99.90;;;;;;5050457;28;20035;-83
2022/03/14 08:29:15;;;;;;;9.90;4.53;;;10.00;99.90;;;;;;5049659;28;20028;-82
2022/03/14 08:31:41;;;;;;;11.35;5.38;;;10.00;99.90;;;;;;5049508;28;20029;-83
2022/03/14 08:34:07;;;;;;;8.55;4.88;;;10.00;99.90;;;;;;5049656;28;20029;-83
2022/03/14 08:36:36;;;;;;;12.05;6.03;;;10.00;99.90;;;;;;5049323;28;20437;-84
2022/03/14 08:39:05;;;;;;;7.78;4.05;;;10.10;99.90;;;;;;5050595;28;20541;-84
2022/03/14 08:41:31;;;;;;;8.30;4.05;;;10.10;99.90;;;;;;5049279;28;20029;-84
2022/03/14 08:43:57;;;;;;;8.05;4.28;;;10.10;99.90;;;;;;5049602;28;20104;-83
2022/03/14 08:46:23;;;;;;;7.20;3.80;;;10.10;99.90;;;;;;5049315;28;20092;-83
2022/03/14 08:48:49;;;;;;;11.93;4.22;;;10.20;99.90;;;;;;5049556;28;20391;-83
2022/03/14 08:51:16;;;;;;;8.90;4.65;;;10.20;99.90;;;;;;5050571;28;20049;-83
2022/03/14 08:53:42;;;;;;;7.70;4.03;;;10.20;99.90;;;;;;5049691;28;20027;-84
2022/03/14 08:56:07;;;;;;;12.10;4.80;;;10.30;99.90;;;;;;5049415;28;20411;-83
2022/03/14 08:58:33;;;;;;;14.43;5.45;;;10.30;99.90;;;;;;5049203;28;20521;-83
2022/03/14 09:01:00;;;;;;;10.43;4.20;;;10.30;99.90;;;;;;5049436;28;20025;-83
2022/03/14 09:03:26;;;;;;;10.93;4.55;;;10.30;99.90;;;;;;5049795;28;20045;-84
2022/03/14 09:05:56;;;;;;;11.93;4.95;;;10.30;99.90;;;;;;5050371;28;20021;-84
2022/03/14 09:08:23;;;;;;;9.65;4.95;;;10.30;99.90;;;;;;5048996;28;20094;-82
2022/03/14 09:10:50;;;;;;;10.35;4.63;;;10.40;99.90;;;;;;5049155;28;20021;-83
2022/03/14 09:13:16;;;;;;;14.38;5.20;;;10.50;99.90;;;;;;5049304;28;20028;-82
2022/03/14 09:15:42;;;;;;;10.43;4.68;;;10.60;99.90;;;;;;5051113;28;20017;-82
2022/03/14 09:18:08;;;;;;;11.38;4.18;;;10.60;99.90;;;;;;5054454;28;20013;-83
2022/03/14 09:20:38;;;;;;;10.10;4.75;;;10.70;99.90;;;;;;5052967;28;20029;-83
2022/03/14 09:23:04;;;;;;;9.63;4.35;;;10.70;99.90;;;;;;5053039;28;20113;-83
2022/03/14 09:25:30;;;;;;;22.63;6.13;;;10.80;99.90;;;;;;5052751;28;20075;-84
2022/03/14 09:27:56;;;;;;;13.07;4.68;;;10.80;99.90;;;;;;5053092;28;20530;-83
2022/03/14 09:30:23;;;;;;;17.67;5.82;;;10.80;99.90;;;;;;5053458;28;20062;-83
2022/03/14 09:32:49;;;;;;;12.27;4.35;;;10.90;99.90;;;;;;5054009;28;20110;-83
2022/03/14 09:35:15;;;;;;;9.35;4.43;;;11.00;99.90;;;;;;5052530;28;20186;-85
2022/03/14 09:37:42;;;;;;;9.93;4.53;;;11.00;99.90;;;;;;5052691;28;20029;-84
2022/03/14 09:40:19;;;;;;;12.90;4.82;;;11.00;99.90;;;;;;5034646;28;20525;-84
2022/03/14 09:42:47;;;;;;;8.18;4.00;;;11.00;99.90;;;;;;5052791;28;20017;-84
2022/03/14 09:45:17;;;;;;;11.25;4.72;;;11.10;99.90;;;;;;5053996;28;20021;-83
2022/03/14 09:47:47;;;;;;;10.80;4.63;;;11.20;99.90;;;;;;5052878;28;20032;-84
2022/03/14 09:50:23;;;;;;;11.93;3.75;;;11.30;99.90;;;;;;5052380;28;20521;-85
2022/03/14 09:52:49;;;;;;;10.70;4.45;;;11.30;99.90;;;;;;5052690;28;20040;-84
2022/03/14 09:55:16;;;;;;;13.27;4.38;;;11.50;99.90;;;;;;5051983;28;20498;-84
2022/03/14 09:57:42;;;;;;;10.52;4.50;;;11.60;99.90;;;;;;5052197;28;20025;-85
2022/03/14 10:00:15;;;;;;;14.48;4.88;;;11.70;99.90;;;;;;5053987;28;20492;-84
2022/03/14 10:02:44;;;;;;;11.40;4.43;;;11.90;99.90;;;;;;5052750;28;20040;-84
2022/03/14 10:05:14;;;;;;;8.27;4.53;;;11.90;99.90;;;;;;5052104;28;20024;-84
2022/03/14 10:07:43;;;;;;;13.13;4.00;;;12.10;99.90;;;;;;5051793;28;20557;-84
2022/03/14 10:10:09;;;;;;;11.95;3.47;;;12.10;99.90;;;;;;5052061;28;20025;-84
2022/03/14 10:12:35;;;;;;;10.20;3.60;;;12.20;99.90;;;;;;5052008;28;20037;-84
2022/03/14 10:15:05;;;;;;;10.60;3.28;;;12.20;99.90;;;;;;5053360;28;20047;-84
2022/03/14 10:17:32;;;;;;;6.65;3.38;;;12.30;99.90;;;;;;5051881;28;20052;-84
2022/03/14 10:20:00;;;;;;;12.18;3.70;;;12.30;99.90;;;;;;5051986;28;20083;-84
2022/03/14 10:22:36;;;;;;;7.82;3.15;;;12.40;99.90;;;;;;5051950;28;20071;-83
2022/03/14 10:25:13;;;;;;;8.13;3.00;;;12.40;99.90;;;;;;5051440;28;20032;-84
2022/03/14 10:27:44;;;;;;;5.68;3.08;;;12.50;99.90;;;;;;5051416;28;20032;-84
2022/03/14 10:30:23;;;;;;;10.43;3.20;;;12.50;99.90;;;;;;5053202;28;20039;-84
2022/03/14 10:32:49;;;;;;;8.15;3.47;;;12.60;99.90;;;;;;5051552;28;20033;-84
2022/03/14 10:35:20;;;;;;;11.85;3.33;;;12.60;99.90;;;;;;5051259;28;20036;-84
2022/03/14 10:38:02;;;;;;;4.25;2.70;;;12.60;99.90;;;;;;5051016;28;20028;-84
2022/03/14 10:40:28;;;;;;;;;;;12.70;99.90;;;;;;5051796;28;20017;-84
2022/03/14 10:42:54;;;;;;;9.80;3.88;;;12.60;99.90;;;;;;5051681;28;19908;-84
2022/03/14 10:45:20;;;;;;;8.30;3.20;;;12.60;99.90;;;;;;5052085;28;20090;-85
2022/03/14 10:48:04;;;;;;;6.05;2.72;;;12.60;99.90;;;;;;5052033;28;20025;-84
2022/03/14 10:50:34;;;;;;;10.48;2.90;;;12.70;99.90;;;;;;5051103;28;20045;-84
2022/03/14 10:53:12;;;;;;;8.10;3.23;;;12.70;99.90;;;;;;5051462;28;20527;-85
2022/03/14 10:55:41;;;;;;;9.77;3.35;;;12.70;99.90;;;;;;5050826;28;20283;-85
2022/03/14 10:58:09;;;;;;;5.72;2.85;;;12.60;99.90;;;;;;5051480;28;20067;-85
2022/03/14 11:00:57;;;;;;;8.55;2.92;;;12.70;99.90;;;;;;5051232;28;20032;-84
2022/03/14 11:03:24;;;;;;;9.48;3.78;;;12.70;99.90;;;;;;5051555;28;20025;-84
2022/03/14 11:05:51;;;;;;;7.97;2.90;;;12.70;99.90;;;;;;5051944;28;20025;-85
2022/03/14 11:08:35;;;;;;;11.45;3.15;;;12.70;99.90;;;;;;5050588;28;20116;-85
2022/03/14 11:11:07;;;;;;;6.43;3.20;;;12.70;99.90;;;;;;5050692;28;20028;-84
2022/03/14 11:13:41;;;;;;;13.80;3.88;;;12.60;99.90;;;;;;5051063;28;20506;-84
2022/03/14 11:16:21;;;;;;;10.75;2.50;;;12.60;99.90;;;;;;5051336;28;20032;-84
2022/03/14 11:18:47;;;;;;;6.20;2.17;;;12.60;99.90;;;;;;5035225;28;20025;-85
2022/03/14 11:21:14;;;;;;;8.43;2.75;;;12.70;99.90;;;;;;5052052;28;20017;-85
2022/03/14 11:23:44;;;;;;;8.57;2.63;;;12.70;99.90;;;;;;5050710;28;20029;-85
2022/03/14 11:26:11;;;;;;;5.68;2.53;;;12.70;99.90;;;;;;5050758;28;20505;-85
2022/03/14 11:28:39;;;;;;;5.80;2.60;;;12.70;99.90;;;;;;5050513;28;20032;-84
2022/03/14 11:31:05;;;;;;;3.90;2.20;;;12.70;99.90;;;;;;5050629;28;20032;-83
2022/03/14 11:33:32;;;;;;;6.78;2.53;;;12.70;99.90;;;;;;5050825;28;20025;-84
2022/03/14 11:36:04;;;;;;;6.43;2.15;;;12.70;99.90;;;;;;5051240;28;20078;-84
2022/03/14 11:38:30;;;;;;;3.92;2.28;;;12.80;99.90;;;;;;5049573;28;20091;-84
2022/03/14 11:40:57;;;;;;;8.52;3.33;;;12.80;99.90;;;;;;5050601;28;20091;-84
2022/03/14 11:43:23;;;;;;;12.38;3.70;;;12.70;99.90;;;;;;5049958;28;20498;-84
2022/03/14 11:45:50;;;;;;;14.25;3.40;;;12.80;99.90;;;;;;5050271;28;20031;-84
2022/03/14 11:48:17;;;;;;;6.70;2.60;;;12.70;99.90;;;;;;5051726;28;20029;-84
2022/03/14 11:50:45;;;;;;;5.97;2.53;;;12.70;99.90;;;;;;5050174;28;20049;-85
2022/03/14 11:53:19;;;;;;;6.80;2.97;;;12.70;99.90;;;;;;5057195;28;20058;-84
2022/03/14 11:56:02;;;;;;;8.60;3.20;;;12.70;99.90;;;;;;5057624;28;20021;-85
2022/03/14 11:58:29;;;;;;;13.73;3.05;;;12.60;99.90;;;;;;5049962;28;20029;-84
2022/03/14 12:00:55;;;;;;;11.45;3.25;;;12.50;99.90;;;;;;5050520;28;20033;-85
2022/03/14 12:03:37;;;;;;;6.38;2.90;;;12.50;99.90;;;;;;5050486;28;20048;-84
2022/03/14 12:06:04;;;;;;;7.13;2.67;;;12.50;99.90;;;;;;5050766;28;20021;-85
2022/03/14 12:08:30;;;;;;;8.05;2.58;;;12.50;99.90;;;;;;5049696;28;20036;-85
2022/03/14 12:11:16;;;;;;;11.02;3.08;;;12.50;99.90;;;;;;5049996;28;20100;-84
2022/03/14 12:13:47;;;;;;;5.78;2.55;;;12.50;99.90;;;;;;5049539;28;20056;-85
2022/03/14 12:16:35;;;;;;;11.68;3.03;;;12.60;99.90;;;;;;5049987;28;20025;-84
2022/03/14 12:19:24;;;;;;;11.43;3.42;;;12.60;99.90;;;;;;5035677;28;20043;-85
2022/03/14 12:21:52;;;;;;;7.70;3.40;;;12.60;99.90;;;;;;5049814;28;20104;-85
2022/03/14 12:24:19;;;;;;;8.82;3.40;;;12.60;99.90;;;;;;5050566;28;20040;-84
2022/03/14 12:26:45;;;;;;;9.63;3.53;;;12.60;99.90;;;;;;5050540;28;20031;-84
2022/03/14 12:29:34;;;;;;;16.80;3.33;;;12.60;99.90;;;;;;5049506;28;20086;-84
2022/03/14 12:32:22;;;;;;;9.60;3.20;;;12.60;99.90;;;;;;5049786;28;20029;-84
2022/03/14 12:35:06;;;;;;;14.93;3.53;;;12.50;99.90;;;;;;5049307;28;20056;-84
2022/03/14 12:37:35;;;;;;;8.65;4.07;;;12.60;99.90;;;;;;5049264;28;20021;-85
2022/03/14 12:40:02;;;;;;;9.52;3.55;;;12.40;99.90;;;;;;5049546;28;20029;-85
2022/03/14 12:42:43;;;;;;;9.85;4.70;;;12.30;99.90;;;;;;5049634;28;20021;-85
2022/03/14 12:45:19;;;;;;;10.38;3.22;;;12.30;99.90;;;;;;5050484;28;20047;-84
2022/03/14 12:48:05;;;;;;;5.65;2.75;;;12.30;99.90;;;;;;5050170;28;20036;-85
2022/03/14 12:50:44;;;;;;;8.32;3.30;;;12.40;99.90;;;;;;5050520;28;20052;-85